sensor_id;sensor_type;location;lat;lon;timestamp;P1;durP1;ratioP1;P2;durP2;ratioP2
62693;SDS011;48759;52.544;13.418;2022-10-16T00:02:02;10.90;;;4.40;;
62693;SDS011;48759;52.544;13.418;2022-10-16T00:04:29;4.73;;;3.70;;
62693;SDS011;48759;52.544;13.418;2022-10-16T00:06:55;5.30;;;3.77;;
62693;SDS011;48759;52.544;13.418;2022-10-16T00:09:21;4.30;;;3.63;;
62693;SDS011;48759;52.544;13.418;2022-10-16T00:11:48;4.30;;;3.90;;
62693;SDS011;48759;52.544;13.418;2022-10-16T00:14:15;4.63;;;4.23;;
62693;SDS011;48759;52.544;13.418;2022-10-16T00:16:43;4.00;;;3.70;;
62693;SDS011;48759;52.544;13.418;2022-10-16T00:19:10;4.00;;;3.60;;
62693;SDS011;48759;52.544;13.418;2022-10-16T00:21:37;4.03;;;3.73;;
62693;SDS011;48759;52.544;13.418;2022-10-16T00:24:05;6.37;;;3.43;;
62693;SDS011;48759;52.544;13.418;2022-10-16T00:26:34;4.43;;;3.70;;
62693;SDS011;48759;52.544;13.418;2022-10-16T00:29:02;4.10;;;3.80;;
62693;SDS011;48759;52.544;13.418;2022-10-16T00:31:29;4.10;;;3.70;;
62693;SDS011;48759;52.544;13.418;2022-10-16T00:33:57;4.67;;;4.27;;
62693;SDS011;48759;52.544;13.418;2022-10-16T00:36:25;4.10;;;3.70;;
62693;SDS011;48759;52.544;13.418;2022-10-16T00:38:52;4.90;;;4.10;;
62693;SDS011;48759;52.544;13.418;2022-10-16T00:41:20;4.37;;;3.60;;
62693;SDS011;48759;52.544;13.418;2022-10-16T00:43:49;4.83;;;3.63;;
62693;SDS011;48759;52.544;13.418;2022-10-16T00:46:18;3.30;;;3.00;;
62693;SDS011;48759;52.544;13.418;2022-10-16T00:48:48;3.73;;;3.43;;
62693;SDS011;48759;52.544;13.418;2022-10-16T00:51:21;3.20;;;3.00;;
62693;SDS011;48759;52.544;13.418;2022-10-16T00:53:51;6.73;;;4.53;;
62693;SDS011;48759;52.544;13.418;2022-10-16T00:56:18;3.40;;;3.10;;
62693;SDS011;48759;52.544;13.418;2022-10-16T00:58:46;3.57;;;2.80;;
62693;SDS011;48759;52.544;13.418;2022-10-16T01:01:13;3.33;;;3.03;;
62693;SDS011;48759;52.544;13.418;2022-10-16T01:03:39;3.63;;;3.33;;
62693;SDS011;48759;52.544;13.418;2022-10-16T01:06:16;3.97;;;3.30;;
62693;SDS011;48759;52.544;13.418;2022-10-16T01:08:58;3.07;;;2.83;;
62693;SDS011;48759;52.544;13.418;2022-10-16T01:11:35;3.43;;;3.10;;
62693;SDS011;48759;52.544;13.418;2022-10-16T01:14:10;3.40;;;3.10;;
62693;SDS011;48759;52.544;13.418;2022-10-16T01:16:43;3.67;;;3.33;;
62693;SDS011;48759;52.544;13.418;2022-10-16T01:19:13;3.70;;;3.40;;
62693;SDS011;48759;52.544;13.418;2022-10-16T01:21:47;3.77;;;3.30;;
62693;SDS011;48759;52.544;13.418;2022-10-16T01:24:21;3.30;;;2.97;;
62693;SDS011;48759;52.544;13.418;2022-10-16T01:27:03;3.33;;;3.03;;
62693;SDS011;48759;52.544;13.418;2022-10-16T01:29:34;4.70;;;3.77;;
62693;SDS011;48759;52.544;13.418;2022-10-16T01:32:08;6.07;;;3.23;;
62693;SDS011;48759;52.544;13.418;2022-10-16T01:34:41;3.37;;;3.07;;
62693;SDS011;48759;52.544;13.418;2022-10-16T01:37:15;3.63;;;3.33;;
62693;SDS011;48759;52.544;13.418;2022-10-16T01:39:47;3.47;;;3.17;;
62693;SDS011;48759;52.544;13.418;2022-10-16T01:42:19;2.90;;;2.70;;
62693;SDS011;48759;52.544;13.418;2022-10-16T01:44:48;4.13;;;2.67;;
62693;SDS011;48759;52.544;13.418;2022-10-16T01:47:17;10.40;;;4.00;;
62693;SDS011;48759;52.544;13.418;2022-10-16T01:49:47;3.20;;;2.97;;
62693;SDS011;48759;52.544;13.418;2022-10-16T01:52:16;2.77;;;2.57;;
62693;SDS011;48759;52.544;13.418;2022-10-16T01:54:47;3.50;;;3.17;;
62693;SDS011;48759;52.544;13.418;2022-10-16T01:57:19;2.90;;;2.70;;
62693;SDS011;48759;52.544;13.418;2022-10-16T01:59:48;3.37;;;2.80;;
62693;SDS011;48759;52.544;13.418;2022-10-16T02:02:18;4.00;;;3.70;;
62693;SDS011;48759;52.544;13.418;2022-10-16T02:04:49;4.03;;;3.17;;
62693;SDS011;48759;52.544;13.418;2022-10-16T02:07:21;2.70;;;2.50;;
62693;SDS011;48759;52.544;13.418;2022-10-16T02:09:48;3.33;;;3.03;;
62693;SDS011;48759;52.544;13.418;2022-10-16T02:12:17;2.80;;;2.60;;
62693;SDS011;48759;52.544;13.418;2022-10-16T02:14:50;3.00;;;2.80;;
62693;SDS011;48759;52.544;13.418;2022-10-16T02:17:17;3.37;;;3.07;;
62693;SDS011;48759;52.544;13.418;2022-10-16T02:19:44;5.17;;;3.40;;
62693;SDS011;48759;52.544;13.418;2022-10-16T02:22:15;3.63;;;3.30;;
62693;SDS011;48759;52.544;13.418;2022-10-16T02:24:47;3.83;;;2.70;;
62693;SDS011;48759;52.544;13.418;2022-10-16T02:27:20;3.40;;;3.10;;
62693;SDS011;48759;52.544;13.418;2022-10-16T02:29:57;2.80;;;2.50;;
62693;SDS011;48759;52.544;13.418;2022-10-16T02:32:32;3.20;;;2.90;;
62693;SDS011;48759;52.544;13.418;2022-10-16T02:35:02;3.10;;;2.80;;
62693;SDS011;48759;52.544;13.418;2022-10-16T02:37:30;2.87;;;2.60;;
62693;SDS011;48759;52.544;13.418;2022-10-16T02:39:58;4.40;;;3.30;;
62693;SDS011;48759;52.544;13.418;2022-10-16T02:42:29;3.47;;;2.70;;
62693;SDS011;48759;52.544;13.418;2022-10-16T02:44:58;3.13;;;2.67;;
62693;SDS011;48759;52.544;13.418;2022-10-16T02:47:25;2.73;;;2.53;;
62693;SDS011;48759;52.544;13.418;2022-10-16T02:49:51;6.47;;;3.10;;
62693;SDS011;48759;52.544;13.418;2022-10-16T02:52:18;3.10;;;2.80;;
62693;SDS011;48759;52.544;13.418;2022-10-16T02:54:45;2.87;;;2.67;;
62693;SDS011;48759;52.544;13.418;2022-10-16T02:57:11;4.73;;;2.53;;
62693;SDS011;48759;52.544;13.418;2022-10-16T02:59:39;4.90;;;2.47;;
62693;SDS011;48759;52.544;13.418;2022-10-16T03:02:05;3.07;;;2.77;;
62693;SDS011;48759;52.544;13.418;2022-10-16T03:04:32;4.00;;;2.70;;
62693;SDS011;48759;52.544;13.418;2022-10-16T03:06:58;2.60;;;2.40;;
62693;SDS011;48759;52.544;13.418;2022-10-16T03:09:26;3.53;;;2.80;;
62693;SDS011;48759;52.544;13.418;2022-10-16T03:11:52;4.10;;;2.80;;
62693;SDS011;48759;52.544;13.418;2022-10-16T03:14:19;9.13;;;3.10;;
62693;SDS011;48759;52.544;13.418;2022-10-16T03:16:46;3.80;;;3.10;;
62693;SDS011;48759;52.544;13.418;2022-10-16T03:19:13;3.43;;;3.10;;
62693;SDS011;48759;52.544;13.418;2022-10-16T03:21:39;4.10;;;3.70;;
62693;SDS011;48759;52.544;13.418;2022-10-16T03:24:06;3.50;;;3.20;;
62693;SDS011;48759;52.544;13.418;2022-10-16T03:26:33;5.20;;;3.30;;
62693;SDS011;48759;52.544;13.418;2022-10-16T03:28:59;4.43;;;3.67;;
62693;SDS011;48759;52.544;13.418;2022-10-16T03:31:27;3.57;;;3.27;;
62693;SDS011;48759;52.544;13.418;2022-10-16T03:33:55;4.10;;;3.13;;
62693;SDS011;48759;52.544;13.418;2022-10-16T03:36:22;3.67;;;3.37;;
62693;SDS011;48759;52.544;13.418;2022-10-16T03:38:48;4.93;;;3.63;;
62693;SDS011;48759;52.544;13.418;2022-10-16T03:41:15;3.23;;;2.93;;
62693;SDS011;48759;52.544;13.418;2022-10-16T03:43:42;3.73;;;3.43;;
62693;SDS011;48759;52.544;13.418;2022-10-16T03:46:08;3.80;;;3.40;;
62693;SDS011;48759;52.544;13.418;2022-10-16T03:48:34;3.87;;;3.47;;
62693;SDS011;48759;52.544;13.418;2022-10-16T03:51:03;4.73;;;3.97;;
62693;SDS011;48759;52.544;13.418;2022-10-16T03:53:29;4.87;;;3.57;;
62693;SDS011;48759;52.544;13.418;2022-10-16T03:55:56;4.20;;;3.80;;
62693;SDS011;48759;52.544;13.418;2022-10-16T03:58:23;4.50;;;3.50;;
62693;SDS011;48759;52.544;13.418;2022-10-16T04:00:49;5.87;;;3.90;;
62693;SDS011;48759;52.544;13.418;2022-10-16T04:03:16;5.03;;;3.60;;
62693;SDS011;48759;52.544;13.418;2022-10-16T04:05:44;3.53;;;3.23;;
62693;SDS011;48759;52.544;13.418;2022-10-16T04:08:11;4.20;;;3.40;;
62693;SDS011;48759;52.544;13.418;2022-10-16T04:10:38;4.20;;;3.23;;
62693;SDS011;48759;52.544;13.418;2022-10-16T04:13:04;4.20;;;3.40;;
62693;SDS011;48759;52.544;13.418;2022-10-16T04:15:31;4.00;;;3.60;;
62693;SDS011;48759;52.544;13.418;2022-10-16T04:17:57;4.00;;;3.70;;
62693;SDS011;48759;52.544;13.418;2022-10-16T04:20:24;4.20;;;3.27;;
62693;SDS011;48759;52.544;13.418;2022-10-16T04:22:50;3.80;;;3.50;;
62693;SDS011;48759;52.544;13.418;2022-10-16T04:25:18;4.33;;;3.63;;
62693;SDS011;48759;52.544;13.418;2022-10-16T04:27:44;3.53;;;3.23;;
62693;SDS011;48759;52.544;13.418;2022-10-16T04:30:11;3.43;;;3.07;;
62693;SDS011;48759;52.544;13.418;2022-10-16T04:32:38;3.60;;;3.30;;
62693;SDS011;48759;52.544;13.418;2022-10-16T04:35:05;3.77;;;3.40;;
62693;SDS011;48759;52.544;13.418;2022-10-16T04:37:32;4.60;;;3.73;;
62693;SDS011;48759;52.544;13.418;2022-10-16T04:39:58;4.03;;;3.70;;
62693;SDS011;48759;52.544;13.418;2022-10-16T04:42:26;3.77;;;3.47;;
62693;SDS011;48759;52.544;13.418;2022-10-16T04:44:53;6.53;;;3.10;;
62693;SDS011;48759;52.544;13.418;2022-10-16T04:47:19;3.60;;;3.30;;
62693;SDS011;48759;52.544;13.418;2022-10-16T04:49:46;2.97;;;2.77;;
62693;SDS011;48759;52.544;13.418;2022-10-16T04:52:12;5.73;;;3.33;;
62693;SDS011;48759;52.544;13.418;2022-10-16T04:54:39;7.73;;;3.27;;
62693;SDS011;48759;52.544;13.418;2022-10-16T04:57:05;4.20;;;3.00;;
62693;SDS011;48759;52.544;13.418;2022-10-16T04:59:33;3.23;;;2.93;;
62693;SDS011;48759;52.544;13.418;2022-10-16T05:01:59;3.63;;;3.33;;
62693;SDS011;48759;52.544;13.418;2022-10-16T05:04:26;11.70;;;3.70;;
62693;SDS011;48759;52.544;13.418;2022-10-16T05:06:52;3.57;;;3.27;;
62693;SDS011;48759;52.544;13.418;2022-10-16T05:09:19;3.50;;;3.20;;
62693;SDS011;48759;52.544;13.418;2022-10-16T05:11:45;4.60;;;3.60;;
62693;SDS011;48759;52.544;13.418;2022-10-16T05:14:12;3.70;;;3.13;;
62693;SDS011;48759;52.544;13.418;2022-10-16T05:16:40;4.17;;;3.50;;
62693;SDS011;48759;52.544;13.418;2022-10-16T05:19:07;3.90;;;3.33;;
62693;SDS011;48759;52.544;13.418;2022-10-16T05:21:34;3.57;;;3.10;;
62693;SDS011;48759;52.544;13.418;2022-10-16T05:24:00;3.87;;;3.27;;
62693;SDS011;48759;52.544;13.418;2022-10-16T05:26:27;9.53;;;3.30;;
62693;SDS011;48759;52.544;13.418;2022-10-16T05:28:53;3.50;;;3.20;;
62693;SDS011;48759;52.544;13.418;2022-10-16T05:31:20;3.07;;;2.87;;
62693;SDS011;48759;52.544;13.418;2022-10-16T05:33:47;3.70;;;3.40;;
62693;SDS011;48759;52.544;13.418;2022-10-16T05:36:14;4.20;;;3.60;;
62693;SDS011;48759;52.544;13.418;2022-10-16T05:38:40;3.47;;;3.17;;
62693;SDS011;48759;52.544;13.418;2022-10-16T05:41:07;3.30;;;3.00;;
62693;SDS011;48759;52.544;13.418;2022-10-16T05:43:33;3.40;;;3.10;;
62693;SDS011;48759;52.544;13.418;2022-10-16T05:46:00;3.77;;;3.20;;
62693;SDS011;48759;52.544;13.418;2022-10-16T05:48:28;3.30;;;3.10;;
62693;SDS011;48759;52.544;13.418;2022-10-16T05:51:00;3.13;;;2.93;;
62693;SDS011;48759;52.544;13.418;2022-10-16T05:53:28;3.80;;;3.50;;
62693;SDS011;48759;52.544;13.418;2022-10-16T05:55:55;4.90;;;2.97;;
62693;SDS011;48759;52.544;13.418;2022-10-16T05:58:22;3.20;;;2.97;;
62693;SDS011;48759;52.544;13.418;2022-10-16T06:00:52;3.50;;;3.20;;
62693;SDS011;48759;52.544;13.418;2022-10-16T06:03:20;4.23;;;3.53;;
62693;SDS011;48759;52.544;13.418;2022-10-16T06:05:47;3.90;;;3.50;;
62693;SDS011;48759;52.544;13.418;2022-10-16T06:08:15;3.37;;;3.07;;
62693;SDS011;48759;52.544;13.418;2022-10-16T06:10:42;5.00;;;3.47;;
62693;SDS011;48759;52.544;13.418;2022-10-16T06:13:09;3.73;;;3.43;;
62693;SDS011;48759;52.544;13.418;2022-10-16T06:15:36;3.30;;;3.10;;
62693;SDS011;48759;52.544;13.418;2022-10-16T06:18:04;3.37;;;3.17;;
62693;SDS011;48759;52.544;13.418;2022-10-16T06:20:30;3.80;;;3.50;;
62693;SDS011;48759;52.544;13.418;2022-10-16T06:22:57;4.90;;;3.23;;
62693;SDS011;48759;52.544;13.418;2022-10-16T06:25:25;3.73;;;3.43;;
62693;SDS011;48759;52.544;13.418;2022-10-16T06:27:51;4.23;;;3.73;;
62693;SDS011;48759;52.544;13.418;2022-10-16T06:30:18;4.20;;;3.80;;
62693;SDS011;48759;52.544;13.418;2022-10-16T06:32:44;4.07;;;3.67;;
62693;SDS011;48759;52.544;13.418;2022-10-16T06:35:10;4.97;;;4.23;;
62693;SDS011;48759;52.544;13.418;2022-10-16T06:37:37;4.03;;;3.70;;
62693;SDS011;48759;52.544;13.418;2022-10-16T06:40:04;5.27;;;3.90;;
62693;SDS011;48759;52.544;13.418;2022-10-16T06:42:32;6.20;;;5.53;;
62693;SDS011;48759;52.544;13.418;2022-10-16T06:44:59;8.63;;;5.10;;
62693;SDS011;48759;52.544;13.418;2022-10-16T06:47:26;8.70;;;6.63;;
62693;SDS011;48759;52.544;13.418;2022-10-16T06:49:53;9.93;;;6.37;;
62693;SDS011;48759;52.544;13.418;2022-10-16T06:52:20;8.87;;;6.10;;
62693;SDS011;48759;52.544;13.418;2022-10-16T06:57:14;7.87;;;5.33;;
62693;SDS011;48759;52.544;13.418;2022-10-16T06:59:42;5.67;;;5.10;;
62693;SDS011;48759;52.544;13.418;2022-10-16T07:02:08;8.97;;;5.10;;
62693;SDS011;48759;52.544;13.418;2022-10-16T07:04:35;12.00;;;5.13;;
62693;SDS011;48759;52.544;13.418;2022-10-16T07:07:01;6.33;;;4.80;;
62693;SDS011;48759;52.544;13.418;2022-10-16T07:09:28;4.63;;;4.03;;
62693;SDS011;48759;52.544;13.418;2022-10-16T07:11:54;7.27;;;4.70;;
62693;SDS011;48759;52.544;13.418;2022-10-16T07:14:21;5.50;;;4.07;;
62693;SDS011;48759;52.544;13.418;2022-10-16T07:16:49;3.87;;;3.57;;
62693;SDS011;48759;52.544;13.418;2022-10-16T07:19:15;3.67;;;3.03;;
62693;SDS011;48759;52.544;13.418;2022-10-16T07:21:43;4.50;;;3.60;;
62693;SDS011;48759;52.544;13.418;2022-10-16T07:24:11;3.33;;;2.73;;
62693;SDS011;48759;52.544;13.418;2022-10-16T07:26:39;3.03;;;2.50;;
62693;SDS011;48759;52.544;13.418;2022-10-16T07:29:08;2.70;;;2.37;;
62693;SDS011;48759;52.544;13.418;2022-10-16T07:31:39;5.10;;;3.03;;
62693;SDS011;48759;52.544;13.418;2022-10-16T07:34:07;3.63;;;2.70;;
62693;SDS011;48759;52.544;13.418;2022-10-16T07:36:34;5.70;;;2.70;;
62693;SDS011;48759;52.544;13.418;2022-10-16T07:39:01;7.60;;;3.00;;
62693;SDS011;48759;52.544;13.418;2022-10-16T07:41:27;2.80;;;2.60;;
62693;SDS011;48759;52.544;13.418;2022-10-16T07:43:54;4.53;;;2.57;;
62693;SDS011;48759;52.544;13.418;2022-10-16T07:46:24;2.53;;;2.33;;
62693;SDS011;48759;52.544;13.418;2022-10-16T07:48:51;2.67;;;2.43;;
62693;SDS011;48759;52.544;13.418;2022-10-16T07:51:20;3.30;;;2.70;;
62693;SDS011;48759;52.544;13.418;2022-10-16T07:53:50;2.80;;;2.50;;
62693;SDS011;48759;52.544;13.418;2022-10-16T07:56:17;3.83;;;2.50;;
62693;SDS011;48759;52.544;13.418;2022-10-16T07:58:45;2.63;;;2.40;;
62693;SDS011;48759;52.544;13.418;2022-10-16T08:01:13;2.63;;;2.43;;
62693;SDS011;48759;52.544;13.418;2022-10-16T08:03:41;2.60;;;2.33;;
62693;SDS011;48759;52.544;13.418;2022-10-16T08:06:08;7.03;;;3.20;;
62693;SDS011;48759;52.544;13.418;2022-10-16T08:08:36;3.27;;;2.20;;
62693;SDS011;48759;52.544;13.418;2022-10-16T08:11:03;2.90;;;2.30;;
62693;SDS011;48759;52.544;13.418;2022-10-16T08:13:30;2.40;;;2.20;;
62693;SDS011;48759;52.544;13.418;2022-10-16T08:15:57;2.60;;;2.40;;
62693;SDS011;48759;52.544;13.418;2022-10-16T08:18:24;2.60;;;2.23;;
62693;SDS011;48759;52.544;13.418;2022-10-16T08:20:54;4.00;;;2.20;;
62693;SDS011;48759;52.544;13.418;2022-10-16T08:23:21;4.30;;;2.23;;
62693;SDS011;48759;52.544;13.418;2022-10-16T08:25:49;3.07;;;2.73;;
62693;SDS011;48759;52.544;13.418;2022-10-16T08:28:15;1.90;;;1.80;;
62693;SDS011;48759;52.544;13.418;2022-10-16T08:30:42;2.27;;;2.07;;
62693;SDS011;48759;52.544;13.418;2022-10-16T08:33:09;2.63;;;2.43;;
62693;SDS011;48759;52.544;13.418;2022-10-16T08:35:35;2.53;;;2.33;;
62693;SDS011;48759;52.544;13.418;2022-10-16T08:38:02;2.53;;;2.20;;
62693;SDS011;48759;52.544;13.418;2022-10-16T08:40:29;2.90;;;2.60;;
62693;SDS011;48759;52.544;13.418;2022-10-16T08:46:06;2.70;;;2.43;;
62693;SDS011;48759;52.544;13.418;2022-10-16T08:48:47;10.53;;;2.50;;
62693;SDS011;48759;52.544;13.418;2022-10-16T08:51:18;3.70;;;3.10;;
62693;SDS011;48759;52.544;13.418;2022-10-16T08:53:49;5.23;;;3.20;;
62693;SDS011;48759;52.544;13.418;2022-10-16T08:56:19;3.00;;;2.80;;
62693;SDS011;48759;52.544;13.418;2022-10-16T08:58:47;2.40;;;2.20;;
62693;SDS011;48759;52.544;13.418;2022-10-16T09:01:16;4.60;;;2.43;;
62693;SDS011;48759;52.544;13.418;2022-10-16T09:04:21;4.97;;;3.07;;
62693;SDS011;48759;52.544;13.418;2022-10-16T09:07:11;2.93;;;2.67;;
62693;SDS011;48759;52.544;13.418;2022-10-16T09:09:49;2.67;;;2.47;;
62693;SDS011;48759;52.544;13.418;2022-10-16T09:12:24;2.80;;;2.43;;
62693;SDS011;48759;52.544;13.418;2022-10-16T09:15:00;5.90;;;2.23;;
62693;SDS011;48759;52.544;13.418;2022-10-16T09:17:38;2.37;;;2.20;;
62693;SDS011;48759;52.544;13.418;2022-10-16T09:20:18;2.33;;;2.13;;
62693;SDS011;48759;52.544;13.418;2022-10-16T09:22:51;2.70;;;2.50;;
62693;SDS011;48759;52.544;13.418;2022-10-16T09:25:21;3.10;;;2.27;;
62693;SDS011;48759;52.544;13.418;2022-10-16T09:27:48;5.23;;;2.50;;
62693;SDS011;48759;52.544;13.418;2022-10-16T09:30:20;2.63;;;1.97;;
62693;SDS011;48759;52.544;13.418;2022-10-16T09:32:48;3.80;;;2.57;;
62693;SDS011;48759;52.544;13.418;2022-10-16T09:35:18;2.40;;;2.20;;
62693;SDS011;48759;52.544;13.418;2022-10-16T09:37:47;4.53;;;2.63;;
62693;SDS011;48759;52.544;13.418;2022-10-16T09:40:24;3.57;;;2.40;;
62693;SDS011;48759;52.544;13.418;2022-10-16T09:42:52;3.40;;;2.83;;
62693;SDS011;48759;52.544;13.418;2022-10-16T09:45:28;3.07;;;2.77;;
62693;SDS011;48759;52.544;13.418;2022-10-16T09:47:55;3.23;;;2.10;;
62693;SDS011;48759;52.544;13.418;2022-10-16T09:50:22;4.23;;;2.47;;
62693;SDS011;48759;52.544;13.418;2022-10-16T09:53:01;6.90;;;3.10;;
62693;SDS011;48759;52.544;13.418;2022-10-16T09:55:29;2.70;;;2.50;;
62693;SDS011;48759;52.544;13.418;2022-10-16T09:57:56;4.27;;;2.63;;
62693;SDS011;48759;52.544;13.418;2022-10-16T10:00:23;2.60;;;2.40;;
62693;SDS011;48759;52.544;13.418;2022-10-16T10:02:52;3.30;;;3.00;;
62693;SDS011;48759;52.544;13.418;2022-10-16T10:05:21;1.90;;;1.80;;
62693;SDS011;48759;52.544;13.418;2022-10-16T10:07:53;2.90;;;2.00;;
62693;SDS011;48759;52.544;13.418;2022-10-16T10:10:22;6.10;;;3.20;;
62693;SDS011;48759;52.544;13.418;2022-10-16T10:12:50;5.23;;;2.20;;
62693;SDS011;48759;52.544;13.418;2022-10-16T10:15:17;9.33;;;2.37;;
62693;SDS011;48759;52.544;13.418;2022-10-16T10:17:47;3.93;;;3.10;;
62693;SDS011;48759;52.544;13.418;2022-10-16T10:20:21;4.23;;;2.70;;
62693;SDS011;48759;52.544;13.418;2022-10-16T10:22:50;3.30;;;2.57;;
62693;SDS011;48759;52.544;13.418;2022-10-16T10:31:08;5.50;;;2.93;;
62693;SDS011;48759;52.544;13.418;2022-10-16T10:33:43;2.50;;;2.30;;
62693;SDS011;48759;52.544;13.418;2022-10-16T10:36:19;3.10;;;2.20;;
62693;SDS011;48759;52.544;13.418;2022-10-16T10:38:54;3.70;;;2.33;;
62693;SDS011;48759;52.544;13.418;2022-10-16T10:41:34;3.40;;;1.97;;
62693;SDS011;48759;52.544;13.418;2022-10-16T10:44:19;3.13;;;2.40;;
62693;SDS011;48759;52.544;13.418;2022-10-16T10:47:01;3.00;;;1.97;;
62693;SDS011;48759;52.544;13.418;2022-10-16T10:49:38;4.70;;;1.90;;
62693;SDS011;48759;52.544;13.418;2022-10-16T10:55:16;3.37;;;2.07;;
62693;SDS011;48759;52.544;13.418;2022-10-16T10:57:54;2.33;;;2.10;;
62693;SDS011;48759;52.544;13.418;2022-10-16T11:00:34;2.53;;;1.70;;
62693;SDS011;48759;52.544;13.418;2022-10-16T11:03:13;3.50;;;2.40;;
62693;SDS011;48759;52.544;13.418;2022-10-16T11:05:54;3.17;;;2.10;;
62693;SDS011;48759;52.544;13.418;2022-10-16T11:08:27;1.90;;;1.80;;
62693;SDS011;48759;52.544;13.418;2022-10-16T11:10:59;4.57;;;2.20;;
62693;SDS011;48759;52.544;13.418;2022-10-16T11:13:30;2.30;;;2.10;;
62693;SDS011;48759;52.544;13.418;2022-10-16T11:16:02;4.93;;;2.17;;
62693;SDS011;48759;52.544;13.418;2022-10-16T11:18:39;3.30;;;2.10;;
62693;SDS011;48759;52.544;13.418;2022-10-16T11:21:13;2.20;;;2.00;;
62693;SDS011;48759;52.544;13.418;2022-10-16T11:23:44;5.23;;;2.40;;
62693;SDS011;48759;52.544;13.418;2022-10-16T11:26:18;3.17;;;2.87;;
62693;SDS011;48759;52.544;13.418;2022-10-16T11:28:48;2.57;;;2.37;;
62693;SDS011;48759;52.544;13.418;2022-10-16T11:31:17;5.33;;;2.57;;
62693;SDS011;48759;52.544;13.418;2022-10-16T11:33:51;5.10;;;2.60;;
62693;SDS011;48759;52.544;13.418;2022-10-16T11:36:26;4.40;;;2.37;;
62693;SDS011;48759;52.544;13.418;2022-10-16T11:39:00;2.30;;;2.10;;
62693;SDS011;48759;52.544;13.418;2022-10-16T11:41:34;3.90;;;2.30;;
62693;SDS011;48759;52.544;13.418;2022-10-16T11:44:14;4.60;;;2.40;;
62693;SDS011;48759;52.544;13.418;2022-10-16T11:46:50;4.00;;;2.20;;
62693;SDS011;48759;52.544;13.418;2022-10-16T11:49:25;3.60;;;2.07;;
62693;SDS011;48759;52.544;13.418;2022-10-16T11:51:58;2.33;;;2.13;;
62693;SDS011;48759;52.544;13.418;2022-10-16T11:54:34;1.80;;;1.70;;
62693;SDS011;48759;52.544;13.418;2022-10-16T11:57:09;4.30;;;1.90;;
62693;SDS011;48759;52.544;13.418;2022-10-16T11:59:42;1.73;;;1.60;;
62693;SDS011;48759;52.544;13.418;2022-10-16T12:02:23;2.23;;;2.03;;
62693;SDS011;48759;52.544;13.418;2022-10-16T12:05:11;10.40;;;2.20;;
62693;SDS011;48759;52.544;13.418;2022-10-16T12:07:46;2.03;;;1.63;;
62693;SDS011;48759;52.544;13.418;2022-10-16T12:10:23;4.00;;;2.23;;
62693;SDS011;48759;52.544;13.418;2022-10-16T12:12:51;2.33;;;1.80;;
62693;SDS011;48759;52.544;13.418;2022-10-16T12:15:19;3.23;;;1.90;;
62693;SDS011;48759;52.544;13.418;2022-10-16T12:17:48;3.00;;;1.70;;
62693;SDS011;48759;52.544;13.418;2022-10-16T12:20:20;4.50;;;1.70;;
62693;SDS011;48759;52.544;13.418;2022-10-16T12:22:53;1.60;;;1.40;;
62693;SDS011;48759;52.544;13.418;2022-10-16T12:25:24;4.30;;;1.57;;
62693;SDS011;48759;52.544;13.418;2022-10-16T12:27:54;2.73;;;1.90;;
62693;SDS011;48759;52.544;13.418;2022-10-16T12:30:23;1.63;;;1.40;;
62693;SDS011;48759;52.544;13.418;2022-10-16T12:32:55;1.60;;;1.50;;
62693;SDS011;48759;52.544;13.418;2022-10-16T12:35:24;4.57;;;1.40;;
62693;SDS011;48759;52.544;13.418;2022-10-16T12:37:52;3.33;;;1.70;;
62693;SDS011;48759;52.544;13.418;2022-10-16T12:40:26;2.70;;;1.53;;
62693;SDS011;48759;52.544;13.418;2022-10-16T12:42:55;3.93;;;1.40;;
62693;SDS011;48759;52.544;13.418;2022-10-16T12:45:28;2.50;;;1.30;;
62693;SDS011;48759;52.544;13.418;2022-10-16T12:47:57;2.60;;;1.60;;
62693;SDS011;48759;52.544;13.418;2022-10-16T12:50:30;1.63;;;1.53;;
62693;SDS011;48759;52.544;13.418;2022-10-16T12:52:59;2.30;;;2.10;;
62693;SDS011;48759;52.544;13.418;2022-10-16T12:55:30;3.00;;;2.30;;
62693;SDS011;48759;52.544;13.418;2022-10-16T12:58:15;2.73;;;1.80;;
62693;SDS011;48759;52.544;13.418;2022-10-16T13:00:54;2.50;;;1.57;;
62693;SDS011;48759;52.544;13.418;2022-10-16T13:03:27;1.90;;;1.70;;
62693;SDS011;48759;52.544;13.418;2022-10-16T13:06:16;4.03;;;2.10;;
62693;SDS011;48759;52.544;13.418;2022-10-16T13:09:02;4.30;;;1.43;;
62693;SDS011;48759;52.544;13.418;2022-10-16T13:11:45;1.73;;;1.40;;
62693;SDS011;48759;52.544;13.418;2022-10-16T13:14:31;1.83;;;1.67;;
62693;SDS011;48759;52.544;13.418;2022-10-16T13:17:13;2.40;;;1.70;;
62693;SDS011;48759;52.544;13.418;2022-10-16T13:19:46;2.60;;;2.30;;
62693;SDS011;48759;52.544;13.418;2022-10-16T13:22:21;1.93;;;1.77;;
62693;SDS011;48759;52.544;13.418;2022-10-16T13:25:01;3.83;;;3.10;;
62693;SDS011;48759;52.544;13.418;2022-10-16T13:27:43;3.83;;;2.50;;
62693;SDS011;48759;52.544;13.418;2022-10-16T13:30:17;2.00;;;1.70;;
62693;SDS011;48759;52.544;13.418;2022-10-16T13:32:47;2.93;;;2.27;;
62693;SDS011;48759;52.544;13.418;2022-10-16T13:35:20;3.43;;;1.50;;
62693;SDS011;48759;52.544;13.418;2022-10-16T13:37:48;1.70;;;1.60;;
62693;SDS011;48759;52.544;13.418;2022-10-16T13:40:19;4.17;;;1.87;;
62693;SDS011;48759;52.544;13.418;2022-10-16T13:42:50;3.10;;;1.80;;
62693;SDS011;48759;52.544;13.418;2022-10-16T13:45:20;1.67;;;1.50;;
62693;SDS011;48759;52.544;13.418;2022-10-16T13:47:48;1.47;;;1.37;;
62693;SDS011;48759;52.544;13.418;2022-10-16T13:50:18;2.33;;;1.87;;
62693;SDS011;48759;52.544;13.418;2022-10-16T13:52:44;6.60;;;2.07;;
62693;SDS011;48759;52.544;13.418;2022-10-16T13:55:12;4.37;;;1.70;;
62693;SDS011;48759;52.544;13.418;2022-10-16T13:57:39;2.00;;;1.40;;
62693;SDS011;48759;52.544;13.418;2022-10-16T14:00:18;6.83;;;1.80;;
62693;SDS011;48759;52.544;13.418;2022-10-16T14:02:50;6.03;;;1.57;;
62693;SDS011;48759;52.544;13.418;2022-10-16T14:05:27;3.00;;;1.70;;
62693;SDS011;48759;52.544;13.418;2022-10-16T14:07:53;5.13;;;1.87;;
62693;SDS011;48759;52.544;13.418;2022-10-16T14:10:23;2.53;;;1.83;;
62693;SDS011;48759;52.544;13.418;2022-10-16T14:12:57;4.27;;;2.03;;
62693;SDS011;48759;52.544;13.418;2022-10-16T14:15:27;1.40;;;1.30;;
62693;SDS011;48759;52.544;13.418;2022-10-16T14:17:56;1.43;;;1.33;;
62693;SDS011;48759;52.544;13.418;2022-10-16T14:20:25;4.83;;;2.20;;
62693;SDS011;48759;52.544;13.418;2022-10-16T14:23:00;3.10;;;2.50;;
62693;SDS011;48759;52.544;13.418;2022-10-16T14:25:30;2.47;;;1.90;;
62693;SDS011;48759;52.544;13.418;2022-10-16T14:28:00;5.13;;;2.10;;
62693;SDS011;48759;52.544;13.418;2022-10-16T14:30:30;3.20;;;1.63;;
62693;SDS011;48759;52.544;13.418;2022-10-16T14:32:59;2.90;;;1.80;;
62693;SDS011;48759;52.544;13.418;2022-10-16T14:35:29;1.70;;;1.60;;
62693;SDS011;48759;52.544;13.418;2022-10-16T14:37:57;1.60;;;1.50;;
62693;SDS011;48759;52.544;13.418;2022-10-16T14:40:25;9.73;;;1.80;;
62693;SDS011;48759;52.544;13.418;2022-10-16T14:42:54;3.23;;;1.67;;
62693;SDS011;48759;52.544;13.418;2022-10-16T14:45:21;3.90;;;2.23;;
62693;SDS011;48759;52.544;13.418;2022-10-16T14:47:51;4.37;;;3.37;;
62693;SDS011;48759;52.544;13.418;2022-10-16T14:50:20;4.40;;;3.00;;
62693;SDS011;48759;52.544;13.418;2022-10-16T14:52:47;2.20;;;2.00;;
62693;SDS011;48759;52.544;13.418;2022-10-16T14:55:14;4.73;;;3.53;;
62693;SDS011;48759;52.544;13.418;2022-10-16T14:57:42;7.87;;;4.10;;
62693;SDS011;48759;52.544;13.418;2022-10-16T15:00:13;5.33;;;4.00;;
62693;SDS011;48759;52.544;13.418;2022-10-16T15:02:43;2.60;;;2.40;;
62693;SDS011;48759;52.544;13.418;2022-10-16T15:05:13;6.87;;;3.87;;